Time;durP1;ratioP1;P1;durP2;ratioP2;P2;SDS_P1;SDS_P2;PMS_P1;PMS_P2;Temp;Humidity;BMP_temperature;BMP_pressure;BME280_temperature;BME280_humidity;BME280_pressure;Samples;Min_cycle;Max_cycle;Signal;HPM_P1;HPM_P2
2021/09/16 00:00:11;;;;;;;1.83;1.50;;;19.80;99.90;;;;;;5039212;28;20186;-49
2021/09/16 00:02:38;;;;;;;1.70;1.60;;;19.80;99.90;;;;;;5033048;28;20205;-49
2021/09/16 00:05:04;;;;;;;2.47;1.75;;;19.80;99.90;;;;;;5035131;28;20182;-49
2021/09/16 00:07:30;;;;;;;2.10;1.80;;;19.80;99.90;;;;;;5033992;28;20285;-49
2021/09/16 00:09:55;;;;;;;1.97;1.87;;;19.70;99.90;;;;;;5027423;28;20281;-50
2021/09/16 00:12:21;;;;;;;1.83;1.73;;;19.70;99.90;;;;;;5027824;28;20702;-49
2021/09/16 00:14:47;;;;;;;2.03;1.63;;;19.80;99.90;;;;;;5038419;28;20188;-50
2021/09/16 00:17:12;;;;;;;2.00;1.90;;;19.80;99.90;;;;;;5037598;28;20291;-50
2021/09/16 00:19:38;;;;;;;2.60;2.20;;;19.80;99.90;;;;;;5038958;28;20540;-49
2021/09/16 00:22:04;;;;;;;2.40;2.17;;;19.80;99.90;;;;;;5027027;28;20272;-49
2021/09/16 00:24:30;;;;;;;2.43;2.27;;;19.80;99.90;;;;;;5031310;28;20231;-49
2021/09/16 00:26:56;;;;;;;3.10;2.17;;;19.70;99.90;;;;;;5032551;28;20441;-49
2021/09/16 00:29:21;;;;;;;2.37;2.17;;;19.70;99.90;;;;;;5030618;28;20185;-49
2021/09/16 00:31:47;;;;;;;2.43;2.10;;;19.60;99.90;;;;;;5039735;28;20185;-49
2021/09/16 00:34:13;;;;;;;2.43;2.10;;;19.60;99.90;;;;;;5039368;28;20200;-49
2021/09/16 00:36:38;;;;;;;2.60;2.33;;;19.60;99.90;;;;;;5025293;28;20189;-49
2021/09/16 00:39:05;;;;;;;2.70;2.30;;;19.50;99.90;;;;;;5030983;28;20436;-49
2021/09/16 00:41:31;;;;;;;3.35;2.30;;;19.50;99.90;;;;;;5032185;28;20202;-49
2021/09/16 00:43:58;;;;;;;2.30;2.07;;;19.50;99.90;;;;;;5027558;28;20186;-49
2021/09/16 00:46:24;;;;;;;2.85;2.20;;;19.50;99.90;;;;;;5032976;28;20182;-49
2021/09/16 00:48:50;;;;;;;2.30;2.10;;;19.50;99.90;;;;;;5031899;28;20209;-49
2021/09/16 00:51:15;;;;;;;2.50;2.03;;;19.40;99.90;;;;;;5036924;28;20236;-49
2021/09/16 00:53:41;;;;;;;2.50;1.93;;;19.30;99.90;;;;;;5021403;28;20433;-49
2021/09/16 00:56:09;;;;;;;2.05;1.85;;;19.50;99.90;;;;;;5030690;28;20182;-49
2021/09/16 00:58:39;;;;;;;1.92;1.77;;;19.50;99.90;;;;;;5030510;28;20205;-50
2021/09/16 01:01:06;;;;;;;4.10;2.22;;;19.50;99.90;;;;;;5027301;28;20545;-49
2021/09/16 01:03:32;;;;;;;2.20;2.00;;;19.50;99.90;;;;;;5025239;28;20189;-49
2021/09/16 01:05:58;;;;;;;3.17;2.20;;;19.40;99.90;;;;;;5039957;28;20670;-49
2021/09/16 01:08:24;;;;;;;3.03;2.37;;;19.50;99.90;;;;;;5033098;28;20798;-49
2021/09/16 01:10:50;;;;;;;3.55;2.00;;;19.40;99.90;;;;;;5024024;28;20655;-49
2021/09/16 01:13:17;;;;;;;3.33;2.10;;;19.50;99.90;;;;;;5024273;28;20490;-49
2021/09/16 01:15:44;;;;;;;2.70;1.63;;;19.50;99.90;;;;;;5039120;28;20644;-49
2021/09/16 01:18:11;;;;;;;2.30;2.10;;;19.50;99.90;;;;;;5036162;28;20210;-50
2021/09/16 01:20:37;;;;;;;2.50;1.70;;;19.50;99.90;;;;;;5034697;28;20193;-49
2021/09/16 01:23:03;;;;;;;4.30;2.00;;;19.50;99.90;;;;;;5028946;28;20214;-49
2021/09/16 01:25:30;;;;;;;2.00;1.90;;;19.60;99.90;;;;;;5035774;28;20650;-49
2021/09/16 01:27:58;;;;;;;2.25;1.50;;;19.60;99.90;;;;;;5032539;28;20467;-49
2021/09/16 01:30:24;;;;;;;1.90;1.80;;;19.70;99.90;;;;;;5037029;28;20200;-49
2021/09/16 01:32:51;;;;;;;1.60;1.50;;;19.70;99.90;;;;;;5032527;28;20652;-49
2021/09/16 01:35:18;;;;;;;2.08;1.95;;;19.70;99.90;;;;;;5035831;28;20201;-49
2021/09/16 01:37:44;;;;;;;3.47;1.60;;;19.70;99.90;;;;;;5030338;28;20256;-49
2021/09/16 01:40:10;;;;;;;2.08;1.75;;;19.70;99.90;;;;;;5026527;28;20190;-50
2021/09/16 01:42:46;;;;;;;2.80;2.10;;;19.70;99.90;;;;;;5029230;28;20216;-50
2021/09/16 01:45:13;;;;;;;1.45;1.35;;;19.70;99.90;;;;;;5036569;28;20228;-49
2021/09/16 01:47:41;;;;;;;1.50;1.30;;;19.70;99.90;;;;;;5030778;28;20229;-49
2021/09/16 01:50:07;;;;;;;2.03;1.77;;;19.70;99.90;;;;;;5026866;28;20175;-49
2021/09/16 01:52:33;;;;;;;1.73;1.63;;;19.70;99.90;;;;;;5036909;28;20214;-49
2021/09/16 01:54:59;;;;;;;1.73;1.30;;;19.70;99.90;;;;;;5035278;28;20201;-49
2021/09/16 01:57:24;;;;;;;3.63;1.63;;;19.60;99.90;;;;;;5033725;28;20292;-49
2021/09/16 01:59:50;;;;;;;3.83;1.97;;;19.70;99.90;;;;;;5020403;28;20201;-49
2021/09/16 02:02:16;;;;;;;2.03;1.47;;;19.60;99.90;;;;;;5037900;28;20201;-49
2021/09/16 02:04:41;;;;;;;2.33;1.70;;;19.70;99.90;;;;;;5024079;28;20182;-49
2021/09/16 02:07:07;;;;;;;2.10;1.90;;;19.70;99.90;;;;;;5034287;28;20202;-49
2021/09/16 02:09:33;;;;;;;1.57;1.30;;;19.70;99.90;;;;;;5023717;28;20449;-49
2021/09/16 02:11:58;;;;;;;4.43;2.30;;;19.70;99.90;;;;;;5030638;28;20232;-49
2021/09/16 02:14:24;;;;;;;2.30;1.77;;;19.70;99.90;;;;;;5023032;28;20186;-49
2021/09/16 02:16:49;;;;;;;3.03;2.17;;;19.70;99.90;;;;;;5030243;28;20740;-50
2021/09/16 02:19:15;;;;;;;1.87;1.60;;;19.70;99.90;;;;;;5029664;28;20190;-49
2021/09/16 02:21:41;;;;;;;1.60;1.50;;;19.70;99.90;;;;;;5034361;28;20206;-49
2021/09/16 02:24:07;;;;;;;2.90;1.40;;;19.60;99.90;;;;;;5027888;28;20188;-49
2021/09/16 02:26:32;;;;;;;1.63;1.53;;;19.60;99.90;;;;;;5030394;28;20186;-50
2021/09/16 02:28:58;;;;;;;3.60;1.90;;;19.60;99.90;;;;;;5026917;28;20460;-49
2021/09/16 02:31:24;;;;;;;1.73;1.60;;;19.50;99.90;;;;;;5018859;28;20182;-49
2021/09/16 02:33:49;;;;;;;2.10;1.53;;;19.40;99.90;;;;;;5030030;28;20194;-49
2021/09/16 02:36:15;;;;;;;1.70;1.43;;;19.40;99.90;;;;;;5035972;28;20517;-49
2021/09/16 02:38:41;;;;;;;2.23;1.53;;;19.30;99.90;;;;;;5025593;28;20198;-49
2021/09/16 02:41:07;;;;;;;1.90;1.80;;;19.30;99.90;;;;;;5035417;28;20190;-49
2021/09/16 02:43:32;;;;;;;1.87;1.50;;;19.50;99.90;;;;;;5028428;28;20544;-49
2021/09/16 02:45:58;;;;;;;1.50;1.40;;;19.50;99.90;;;;;;5030284;28;20264;-49
2021/09/16 02:48:24;;;;;;;1.70;1.60;;;19.50;99.90;;;;;;5023603;28;20201;-49
2021/09/16 02:50:50;;;;;;;2.50;1.90;;;19.40;99.90;;;;;;5029310;28;20218;-49
2021/09/16 02:53:15;;;;;;;1.63;1.53;;;19.50;99.90;;;;;;5030316;28;20190;-49
2021/09/16 02:55:41;;;;;;;1.53;1.43;;;19.50;99.90;;;;;;5029108;28;20731;-49
2021/09/16 02:58:07;;;;;;;1.83;1.73;;;19.30;99.90;;;;;;5024754;28;20226;-49
2021/09/16 03:00:32;;;;;;;2.23;1.67;;;19.40;99.90;;;;;;5029357;28;20282;-49
2021/09/16 03:02:58;;;;;;;1.70;1.60;;;19.40;99.90;;;;;;5030498;28;20596;-50
2021/09/16 03:05:24;;;;;;;3.13;1.93;;;19.30;99.90;;;;;;5035991;28;20185;-49
2021/09/16 03:07:50;;;;;;;1.70;1.60;;;19.30;99.90;;;;;;5031806;28;20469;-49
2021/09/16 03:10:16;;;;;;;3.17;2.00;;;19.30;99.90;;;;;;5032637;28;20663;-49
2021/09/16 03:12:42;;;;;;;1.42;1.33;;;19.30;99.90;;;;;;5029582;28;20488;-49
2021/09/16 03:15:09;;;;;;;1.92;1.83;;;19.40;99.90;;;;;;5027042;28;20200;-49
2021/09/16 03:17:35;;;;;;;1.55;1.45;;;19.40;99.90;;;;;;5037951;28;20216;-49
2021/09/16 03:20:02;;;;;;;1.48;1.35;;;19.40;99.90;;;;;;5029880;28;20170;-49
2021/09/16 03:22:27;;;;;;;2.92;1.90;;;19.40;99.90;;;;;;5039106;28;20476;-49
2021/09/16 03:24:53;;;;;;;1.97;1.40;;;19.40;99.90;;;;;;5033521;28;20190;-49
2021/09/16 03:27:19;;;;;;;1.60;1.50;;;19.40;99.90;;;;;;5032923;28;20214;-49
2021/09/16 03:29:44;;;;;;;2.80;2.20;;;19.40;99.90;;;;;;5036686;28;20197;-49
2021/09/16 03:32:10;;;;;;;2.37;2.03;;;19.40;99.90;;;;;;5042062;28;20204;-50
2021/09/16 03:34:36;;;;;;;1.87;1.77;;;19.40;99.90;;;;;;5028720;28;20689;-49
2021/09/16 03:37:02;;;;;;;1.50;1.40;;;19.50;99.90;;;;;;5024896;28;20218;-49
2021/09/16 03:39:28;;;;;;;2.25;1.70;;;19.50;99.90;;;;;;5036067;28;20194;-49
2021/09/16 03:41:53;;;;;;;1.73;1.63;;;19.60;99.90;;;;;;5033306;28;20292;-49
2021/09/16 03:44:19;;;;;;;2.60;1.60;;;19.30;99.90;;;;;;5030833;28;20214;-49
2021/09/16 03:46:45;;;;;;;2.10;1.90;;;19.50;99.90;;;;;;5033359;28;20240;-49
2021/09/16 03:49:11;;;;;;;2.10;1.90;;;19.50;99.90;;;;;;5032997;28;20182;-49
2021/09/16 03:51:36;;;;;;;1.93;1.83;;;19.50;99.90;;;;;;5036786;28;20185;-49
2021/09/16 03:54:02;;;;;;;1.67;1.57;;;19.20;99.90;;;;;;5028081;28;20198;-49
2021/09/16 03:56:28;;;;;;;1.63;1.53;;;19.30;99.90;;;;;;5033390;28;20247;-49
2021/09/16 03:58:54;;;;;;;2.30;1.70;;;19.30;99.90;;;;;;5030611;28;20237;-50
2021/09/16 04:01:20;;;;;;;2.10;1.90;;;19.20;99.90;;;;;;5032496;28;20182;-49
2021/09/16 04:03:46;;;;;;;4.40;2.00;;;19.30;99.90;;;;;;5030974;28;20201;-49
2021/09/16 04:06:12;;;;;;;2.00;1.80;;;19.20;99.90;;;;;;5027944;28;20239;-49
2021/09/16 04:08:37;;;;;;;2.23;1.97;;;19.30;99.90;;;;;;5024138;28;20213;-50
2021/09/16 04:11:04;;;;;;;3.17;2.87;;;19.20;99.90;;;;;;5025072;28;20272;-49
2021/09/16 04:13:29;;;;;;;2.15;1.95;;;19.30;99.90;;;;;;5028012;28;20196;-49
2021/09/16 04:15:55;;;;;;;2.23;1.80;;;19.30;99.90;;;;;;5038675;28;20185;-49
2021/09/16 04:18:21;;;;;;;3.17;2.13;;;19.30;99.90;;;;;;5032195;28;20220;-49
2021/09/16 04:20:47;;;;;;;2.80;2.00;;;19.20;99.90;;;;;;5029533;28;20189;-49
2021/09/16 04:23:12;;;;;;;2.03;1.93;;;19.20;99.90;;;;;;5032650;28;20754;-49
2021/09/16 04:25:38;;;;;;;2.63;2.43;;;19.20;99.90;;;;;;5032075;28;20263;-50
2021/09/16 04:28:04;;;;;;;3.00;2.10;;;19.20;99.90;;;;;;5026461;28;20207;-49
2021/09/16 04:30:30;;;;;;;2.00;1.70;;;19.20;99.90;;;;;;5033287;28;20178;-49
2021/09/16 04:32:55;;;;;;;2.40;2.20;;;19.20;99.90;;;;;;5038104;28;20447;-49
2021/09/16 04:35:21;;;;;;;2.30;1.87;;;19.20;99.90;;;;;;5029144;28;20668;-49
2021/09/16 04:37:47;;;;;;;2.57;2.37;;;19.20;99.90;;;;;;5023206;28;20208;-49
2021/09/16 04:40:12;;;;;;;2.57;1.73;;;19.20;99.90;;;;;;5038393;28;20262;-49
2021/09/16 04:42:39;;;;;;;2.00;1.80;;;19.20;99.90;;;;;;5029625;28;20248;-49
2021/09/16 04:45:07;;;;;;;2.35;1.92;;;19.50;99.90;;;;;;5030981;28;20182;-49
2021/09/16 04:47:32;;;;;;;2.80;2.30;;;19.20;99.90;;;;;;5035947;28;20649;-49
2021/09/16 04:49:58;;;;;;;2.90;2.17;;;19.20;99.90;;;;;;5030378;28;20182;-49
2021/09/16 04:52:25;;;;;;;3.53;2.17;;;19.20;99.90;;;;;;5031661;28;20623;-49
2021/09/16 04:54:51;;;;;;;2.45;2.25;;;19.20;99.90;;;;;;5033223;28;20546;-49
2021/09/16 04:57:17;;;;;;;2.33;2.15;;;19.20;99.90;;;;;;5030976;28;20241;-49
2021/09/16 04:59:43;;;;;;;2.30;2.00;;;19.10;99.90;;;;;;5028721;28;20218;-49
2021/09/16 05:02:08;;;;;;;3.33;2.50;;;19.20;99.90;;;;;;5029791;28;20467;-49
2021/09/16 05:04:34;;;;;;;2.70;2.50;;;19.20;99.90;;;;;;5027727;28;20651;-49
2021/09/16 05:07:00;;;;;;;3.17;2.77;;;19.10;99.90;;;;;;5035843;28;20201;-50
2021/09/16 05:09:26;;;;;;;3.10;2.90;;;19.10;99.90;;;;;;5032263;28;20190;-50
2021/09/16 05:11:51;;;;;;;2.40;2.20;;;19.10;99.90;;;;;;5027943;28;20440;-50
2021/09/16 05:14:17;;;;;;;2.43;2.13;;;19.00;99.90;;;;;;5029201;28;20628;-50
2021/09/16 05:16:43;;;;;;;4.57;3.00;;;19.10;99.90;;;;;;5030492;28;20644;-49
2021/09/16 05:19:08;;;;;;;3.03;2.70;;;19.10;99.90;;;;;;5030600;28;20270;-49
2021/09/16 05:21:34;;;;;;;4.17;3.10;;;19.10;99.90;;;;;;5027967;28;20286;-49
2021/09/16 05:24:00;;;;;;;2.83;2.53;;;19.10;99.90;;;;;;5024953;28;20192;-49
2021/09/16 05:26:26;;;;;;;3.60;2.87;;;19.20;99.90;;;;;;5031290;28;20181;-50
2021/09/16 05:28:51;;;;;;;3.40;2.70;;;19.20;99.90;;;;;;5020954;28;20586;-49
2021/09/16 05:31:17;;;;;;;3.20;2.97;;;19.10;99.90;;;;;;5029025;28;20553;-50
2021/09/16 05:33:43;;;;;;;4.77;3.13;;;19.10;99.90;;;;;;5024512;28;20181;-51
2021/09/16 05:36:09;;;;;;;4.43;3.80;;;19.00;99.90;;;;;;5019728;28;20252;-50
2021/09/16 05:38:34;;;;;;;4.73;2.90;;;19.10;99.90;;;;;;5029241;28;20212;-49
2021/09/16 05:41:00;;;;;;;3.40;2.70;;;19.00;99.90;;;;;;5026699;28;20437;-49
2021/09/16 05:43:26;;;;;;;4.33;2.90;;;19.10;99.90;;;;;;5027005;28;20212;-50
2021/09/16 05:45:52;;;;;;;3.27;2.93;;;19.10;99.90;;;;;;5028822;28;20635;-50
2021/09/16 05:48:20;;;;;;;2.38;2.20;;;19.10;99.90;;;;;;5015826;28;20233;-49
2021/09/16 05:50:47;;;;;;;3.88;3.03;;;19.10;99.90;;;;;;5013639;28;20836;-49
2021/09/16 05:53:12;;;;;;;5.93;3.10;;;18.90;99.90;;;;;;5029080;28;20510;-50
2021/09/16 05:55:40;;;;;;;3.50;3.13;;;18.90;99.90;;;;;;5027885;28;20651;-50
2021/09/16 05:58:06;;;;;;;4.47;3.08;;;18.90;99.90;;;;;;5023388;28;20218;-50
2021/09/16 06:00:32;;;;;;;5.10;3.13;;;19.00;99.90;;;;;;5027171;28;20616;-49
2021/09/16 06:02:57;;;;;;;3.83;3.50;;;19.10;99.90;;;;;;5029537;28;20298;-50
2021/09/16 06:05:23;;;;;;;3.97;3.33;;;19.00;99.90;;;;;;5022590;28;20183;-49
2021/09/16 06:07:49;;;;;;;6.97;3.90;;;19.10;99.90;;;;;;5020300;28;20288;-49
2021/09/16 06:10:15;;;;;;;5.53;3.93;;;19.10;99.90;;;;;;5029132;28;20221;-48
2021/09/16 06:12:41;;;;;;;3.45;3.00;;;19.10;99.90;;;;;;5025246;28;20193;-48
2021/09/16 06:15:08;;;;;;;4.13;3.17;;;19.00;99.90;;;;;;5031155;28;20201;-48
2021/09/16 06:17:34;;;;;;;4.78;4.00;;;19.00;99.90;;;;;;5025641;28;20459;-49
2021/09/16 06:19:59;;;;;;;4.03;3.17;;;19.10;99.90;;;;;;5031561;28;20208;-48
2021/09/16 06:22:25;;;;;;;4.07;3.70;;;19.10;99.90;;;;;;5024377;28;20221;-49
2021/09/16 06:24:51;;;;;;;4.67;3.37;;;19.40;99.90;;;;;;5024292;28;20260;-50
2021/09/16 06:27:16;;;;;;;6.73;4.40;;;19.20;99.90;;;;;;5028959;28;20282;-49
2021/09/16 06:29:42;;;;;;;4.93;3.33;;;19.10;99.90;;;;;;5021215;28;20198;-50
2021/09/16 06:32:08;;;;;;;7.47;3.90;;;19.20;99.90;;;;;;5021007;28;20189;-50
2021/09/16 06:34:33;;;;;;;4.57;4.00;;;19.20;99.90;;;;;;5027506;28;20209;-50
2021/09/16 06:37:00;;;;;;;4.33;3.93;;;19.10;99.90;;;;;;5028837;28;20232;-51
2021/09/16 06:39:25;;;;;;;5.90;3.78;;;19.20;99.90;;;;;;5021038;28;20603;-50
2021/09/16 06:41:51;;;;;;;3.60;3.30;;;19.40;99.90;;;;;;5021938;28;20217;-50
2021/09/16 06:44:16;;;;;;;3.20;2.90;;;19.30;99.90;;;;;;5027094;28;20636;-50
2021/09/16 06:46:42;;;;;;;5.87;4.23;;;19.20;99.90;;;;;;5027474;28;20179;-49
2021/09/16 06:49:08;;;;;;;3.77;3.37;;;19.10;99.90;;;;;;5024286;28;20185;-51
2021/09/16 06:51:33;;;;;;;4.57;4.17;;;19.10;99.90;;;;;;5021261;28;20182;-51
2021/09/16 06:54:00;;;;;;;4.50;2.97;;;19.20;99.90;;;;;;5027697;28;20670;-49
2021/09/16 06:56:25;;;;;;;4.25;3.42;;;19.10;99.90;;;;;;5024376;28;20678;-49
2021/09/16 06:58:51;;;;;;;3.27;2.97;;;19.10;99.90;;;;;;5023523;28;20214;-49
2021/09/16 07:01:17;;;;;;;3.70;3.30;;;19.10;99.90;;;;;;5025197;28;20946;-49
2021/09/16 07:03:43;;;;;;;3.50;3.10;;;19.10;99.90;;;;;;5021834;28;20214;-49
2021/09/16 07:06:08;;;;;;;3.40;3.10;;;19.30;99.90;;;;;;5022519;28;20298;-49
2021/09/16 07:08:34;;;;;;;8.03;7.23;;;19.30;99.90;;;;;;5032742;28;20263;-50
2021/09/16 07:11:00;;;;;;;6.68;6.03;;;19.40;99.90;;;;;;5025626;28;20618;-50
2021/09/16 07:13:26;;;;;;;4.80;3.30;;;19.40;99.90;;;;;;5020507;28;20302;-50
2021/09/16 07:15:51;;;;;;;2.80;2.60;;;19.50;99.90;;;;;;5027473;28;20182;-50
2021/09/16 07:18:17;;;;;;;4.30;2.57;;;19.60;99.90;;;;;;5023984;28;20263;-49
2021/09/16 07:20:43;;;;;;;5.37;3.80;;;19.60;99.90;;;;;;5024278;28;20269;-50
2021/09/16 07:23:09;;;;;;;3.73;3.10;;;19.70;99.90;;;;;;5027849;28;20210;-49
2021/09/16 07:25:34;;;;;;;4.33;3.07;;;19.60;99.90;;;;;;5029447;28;20178;-49
2021/09/16 07:28:00;;;;;;;4.93;2.97;;;19.70;99.90;;;;;;5029491;28;20285;-49
2021/09/16 07:30:26;;;;;;;4.20;3.30;;;19.70;99.90;;;;;;5012551;28;20206;-49
2021/09/16 07:32:52;;;;;;;4.87;3.23;;;19.70;99.90;;;;;;5026055;28;20205;-51
2021/09/16 07:35:17;;;;;;;3.67;3.30;;;19.60;99.90;;;;;;5025325;28;20201;-51
2021/09/16 07:37:43;;;;;;;4.63;2.90;;;19.80;99.90;;;;;;5024857;28;20206;-50
2021/09/16 07:40:10;;;;;;;4.63;3.65;;;19.40;99.90;;;;;;5026989;28;20606;-50
2021/09/16 07:42:36;;;;;;;4.35;3.70;;;19.20;99.90;;;;;;5016128;28;20218;-50
2021/09/16 07:45:03;;;;;;;6.80;4.23;;;19.10;99.90;;;;;;5027003;28;20188;-50
2021/09/16 07:47:28;;;;;;;7.40;5.20;;;19.10;99.90;;;;;;5024413;28;20199;-50
2021/09/16 07:49:54;;;;;;;8.13;6.13;;;19.10;99.90;;;;;;5024372;28;20190;-49
2021/09/16 07:52:20;;;;;;;8.10;6.00;;;19.00;99.90;;;;;;5025177;28;20182;-50
2021/09/16 07:54:45;;;;;;;8.77;5.90;;;19.00;99.90;;;;;;5018805;28;20202;-50
2021/09/16 07:57:11;;;;;;;7.07;6.30;;;18.90;99.90;;;;;;5021083;28;20263;-50
2021/09/16 07:59:36;;;;;;;7.80;6.43;;;18.90;99.90;;;;;;5031422;28;20213;-49
2021/09/16 08:02:02;;;;;;;6.80;5.87;;;18.90;99.90;;;;;;5026739;28;20217;-50
2021/09/16 08:04:28;;;;;;;5.83;5.23;;;18.90;99.90;;;;;;5029926;28;20174;-50
2021/09/16 08:06:54;;;;;;;5.53;5.03;;;18.90;99.90;;;;;;5030702;28;20183;-51
2021/09/16 08:09:19;;;;;;;4.30;3.90;;;18.90;99.90;;;;;;5030462;28;20181;-51
2021/09/16 08:11:45;;;;;;;3.97;3.67;;;18.80;99.90;;;;;;5025942;28;20187;-49
2021/09/16 08:14:12;;;;;;;4.43;4.07;;;18.70;99.90;;;;;;5022136;28;20192;-49
2021/09/16 08:16:38;;;;;;;3.80;3.15;;;18.60;99.90;;;;;;5025867;28;20194;-50
2021/09/16 08:19:06;;;;;;;3.53;3.22;;;18.60;99.90;;;;;;5029173;28;20317;-49
2021/09/16 08:21:32;;;;;;;4.18;2.42;;;18.70;99.90;;;;;;5020699;28;20187;-50
2021/09/16 08:23:58;;;;;;;3.22;2.88;;;18.70;99.90;;;;;;5031724;28;20180;-49
2021/09/16 08:26:24;;;;;;;4.40;4.00;;;18.60;99.90;;;;;;5025337;28;20185;-49
2021/09/16 08:28:50;;;;;;;2.90;2.60;;;18.60;99.90;;;;;;5024760;28;20691;-50
2021/09/16 08:31:16;;;;;;;3.15;2.50;;;18.50;99.90;;;;;;5026625;28;20433;-49
2021/09/16 08:33:42;;;;;;;2.87;2.50;;;18.50;99.90;;;;;;5032091;28;20193;-49
2021/09/16 08:36:10;;;;;;;3.20;2.43;;;18.60;99.90;;;;;;5027471;28;20457;-49
2021/09/16 08:38:36;;;;;;;2.50;2.08;;;18.60;99.90;;;;;;5029000;28;20252;-49
2021/09/16 08:41:02;;;;;;;2.88;2.67;;;18.70;99.90;;;;;;5032891;28;20619;-49
2021/09/16 08:43:31;;;;;;;2.13;2.03;;;18.60;99.90;;;;;;5023170;28;20213;-49
2021/09/16 08:45:58;;;;;;;2.03;1.85;;;18.50;99.90;;;;;;5032159;28;20190;-49
2021/09/16 08:48:24;;;;;;;2.10;1.60;;;18.50;99.90;;;;;;5031204;28;20639;-49
2021/09/16 08:50:50;;;;;;;2.60;2.00;;;18.40;99.90;;;;;;5027236;28;20225;-49
2021/09/16 08:53:25;;;;;;;1.70;1.60;;;18.40;99.90;;;;;;5027996;28;20467;-49
2021/09/16 08:55:52;;;;;;;1.98;1.67;;;18.40;99.90;;;;;;5026297;28;20190;-49
2021/09/16 08:58:19;;;;;;;1.52;1.42;;;18.40;99.90;;;;;;5035814;28;20216;-49
2021/09/16 09:00:45;;;;;;;1.60;1.10;;;18.40;99.90;;;;;;5035887;28;20190;-49
2021/09/16 09:03:11;;;;;;;2.00;1.35;;;18.30;99.90;;;;;;5027579;28;20686;-49
2021/09/16 09:05:39;;;;;;;33.97;30.50;;;18.20;99.90;;;;;;5025192;28;20225;-50
2021/09/16 09:08:05;;;;;;;5.25;4.68;;;18.50;99.90;;;;;;5023357;28;20208;-49
2021/09/16 09:10:47;;;;;;;3.83;2.63;;;18.40;99.90;;;;;;5022259;28;20195;-49
2021/09/16 09:13:16;;;;;;;2.55;2.35;;;18.40;99.90;;;;;;5023723;28;20190;-49
2021/09/16 09:15:46;;;;;;;3.60;2.90;;;18.40;99.90;;;;;;5031998;28;20185;-49
2021/09/16 09:18:15;;;;;;;4.70;4.30;;;18.20;99.90;;;;;;5031972;28;20241;-49
2021/09/16 09:20:53;;;;;;;5.93;4.60;;;18.00;99.90;;;;;;5031969;28;20182;-48
2021/09/16 09:23:34;;;;;;;6.00;5.50;;;18.40;99.90;;;;;;5034844;28;20266;-48
2021/09/16 09:26:17;;;;;;;10.85;6.72;;;17.80;99.90;;;;;;5027655;28;20182;-48
2021/09/16 09:28:43;;;;;;;6.65;5.95;;;18.10;99.90;;;;;;5024352;28;20200;-48
2021/09/16 09:31:19;;;;;;;7.07;6.47;;;18.10;99.90;;;;;;5033203;28;20713;-49
2021/09/16 09:33:45;;;;;;;8.63;7.82;;;17.70;99.90;;;;;;5035845;28;20218;-49
2021/09/16 09:36:19;;;;;;;8.07;7.20;;;17.80;99.90;;;;;;5028257;28;20921;-49
2021/09/16 09:38:51;;;;;;;8.13;6.97;;;18.10;99.90;;;;;;5027559;28;20206;-49
2021/09/16 09:41:47;;;;;;;9.57;8.10;;;18.20;99.90;;;;;;5031413;28;20194;-49
2021/09/16 09:44:14;;;;;;;7.28;6.57;;;18.10;99.90;;;;;;5022333;28;20675;-49
2021/09/16 09:46:50;;;;;;;6.57;6.03;;;18.10;99.90;;;;;;5030841;28;20193;-49
2021/09/16 09:49:24;;;;;;;6.10;5.50;;;18.10;99.90;;;;;;5026316;28;20541;-49
2021/09/16 09:51:53;;;;;;;5.70;5.22;;;18.20;99.90;;;;;;5029111;28;20776;-49
2021/09/16 09:54:31;;;;;;;6.43;5.82;;;18.10;99.90;;;;;;5029105;28;20681;-47
2021/09/16 09:57:07;;;;;;;6.50;5.07;;;18.20;99.90;;;;;;5035267;28;20189;-48
2021/09/16 10:00:07;;;;;;;5.82;5.22;;;18.10;99.90;;;;;;5018033;28;20182;-48
2021/09/16 10:02:53;;;;;;;5.95;5.45;;;18.20;99.90;;;;;;5032991;28;20297;-48
2021/09/16 10:05:35;;;;;;;8.20;7.40;;;18.10;99.90;;;;;;5025829;28;20227;-48
2021/09/16 10:08:04;;;;;;;6.80;6.20;;;18.00;99.90;;;;;;5028865;28;20205;-48
2021/09/16 10:10:38;;;;;;;8.13;7.43;;;17.90;99.90;;;;;;5030488;28;20262;-48
2021/09/16 10:13:05;;;;;;;9.57;7.30;;;18.00;99.90;;;;;;5030784;28;20192;-48
2021/09/16 10:15:31;;;;;;;13.00;11.75;;;18.10;99.90;;;;;;5027339;28;20234;-48
2021/09/16 10:17:57;;;;;;;10.13;9.23;;;18.00;99.90;;;;;;5027986;28;20253;-48
2021/09/16 10:20:26;;;;;;;8.98;7.97;;;18.00;99.90;;;;;;5031340;28;20675;-48
2021/09/16 10:22:59;;;;;;;9.90;9.00;;;17.70;99.90;;;;;;5026229;28;20210;-49
2021/09/16 10:25:28;;;;;;;9.20;8.30;;;17.90;99.90;;;;;;5021835;28;20289;-50
2021/09/16 10:28:05;;;;;;;10.45;9.45;;;18.00;99.90;;;;;;5025235;28;20634;-50
2021/09/16 10:30:39;;;;;;;9.50;8.55;;;18.20;99.90;;;;;;5030964;28;20602;-49
2021/09/16 10:33:17;;;;;;;14.50;13.15;;;18.30;99.90;;;;;;5023130;28;20277;-49
2021/09/16 10:35:58;;;;;;;9.70;8.80;;;18.50;99.90;;;;;;5016365;28;20203;-48
2021/09/16 10:38:24;;;;;;;8.48;7.68;;;18.50;99.90;;;;;;5025990;28;20228;-49
2021/09/16 10:41:28;;;;;;;10.40;9.40;;;18.40;99.90;;;;;;5015117;28;20206;-49
2021/09/16 10:43:59;;;;;;;10.40;9.40;;;18.40;99.90;;;;;;5016311;28;20232;-49
2021/09/16 10:46:40;;;;;;;9.95;8.95;;;18.40;99.90;;;;;;5029989;28;20577;-49
2021/09/16 10:49:26;;;;;;;11.50;10.40;;;18.50;99.90;;;;;;5025386;28;20200;-49
2021/09/16 10:51:59;;;;;;;12.60;11.40;;;18.40;99.90;;;;;;5026469;28;20196;-48
2021/09/16 10:54:24;;;;;;;11.55;10.35;;;18.10;99.90;;;;;;5029328;28;20280;-48
2021/09/16 10:57:02;;;;;;;12.40;11.10;;;18.00;99.90;;;;;;5027323;28;20281;-49
2021/09/16 10:59:49;;;;;;;12.55;9.98;;;18.10;99.90;;;;;;5020872;28;20614;-48
2021/09/16 11:02:19;;;;;;;11.95;10.05;;;18.10;99.90;;;;;;5033959;28;20213;-48
2021/09/16 11:04:54;;;;;;;13.30;11.07;;;18.00;99.90;;;;;;5033466;28;20689;-48
2021/09/16 11:07:32;;;;;;;14.57;11.77;;;18.50;99.90;;;;;;5027918;28;20204;-48
2021/09/16 11:10:25;;;;;;;14.80;10.38;;;18.40;99.90;;;;;;5027727;28;20189;-47
2021/09/16 11:12:52;;;;;;;12.23;10.93;;;18.60;99.90;;;;;;5021320;28;20187;-48
2021/09/16 11:15:26;;;;;;;11.70;10.50;;;18.50;99.90;;;;;;5029268;28;21549;-48
2021/09/16 11:18:06;;;;;;;12.20;11.02;;;18.70;99.90;;;;;;5033836;28;20631;-47
2021/09/16 11:20:32;;;;;;;13.77;10.98;;;18.80;99.90;;;;;;5028347;28;20220;-49
2021/09/16 11:22:58;;;;;;;14.73;12.27;;;18.90;99.90;;;;;;5024788;28;20698;-49
2021/09/16 11:25:25;;;;;;;14.97;12.00;;;18.90;99.90;;;;;;5027546;28;20197;-49
2021/09/16 11:27:54;;;;;;;13.23;11.93;;;18.90;99.90;;;;;;5027633;28;20564;-49
2021/09/16 11:30:21;;;;;;;14.10;11.65;;;18.70;99.90;;;;;;5026691;28;20192;-48
2021/09/16 11:32:49;;;;;;;13.13;11.32;;;18.70;99.90;;;;;;5039535;28;20192;-49
2021/09/16 11:35:20;;;;;;;13.10;11.40;;;18.60;99.90;;;;;;5031463;28;20914;-49
2021/09/16 11:37:51;;;;;;;14.18;12.68;;;18.70;99.90;;;;;;5023944;28;20218;-49
2021/09/16 11:40:22;;;;;;;13.60;10.50;;;18.70;99.90;;;;;;5032470;28;20255;-49
2021/09/16 11:42:51;;;;;;;13.18;11.48;;;18.80;99.90;;;;;;5033421;28;20222;-49
2021/09/16 11:45:17;;;;;;;13.43;11.57;;;18.90;99.90;;;;;;5035935;28;20265;-50
2021/09/16 11:47:46;;;;;;;14.15;12.20;;;18.70;99.90;;;;;;5039306;28;20725;-49
2021/09/16 11:50:25;;;;;;;13.20;11.80;;;18.90;99.90;;;;;;5034888;28;20194;-49
2021/09/16 11:53:16;;;;;;;12.73;11.30;;;19.00;99.90;;;;;;5024659;28;20193;-49
2021/09/16 11:55:48;;;;;;;11.13;10.02;;;19.10;99.90;;;;;;5029405;28;20544;-49
2021/09/16 11:58:16;;;;;;;14.00;12.07;;;19.10;99.90;;;;;;5024889;28;20707;-49
2021/09/16 12:00:47;;;;;;;14.80;11.32;;;19.40;99.90;;;;;;5030831;28;20578;-49
2021/09/16 12:03:37;;;;;;;12.20;10.88;;;19.10;99.90;;;;;;5030878;28;20210;-49
2021/09/16 12:06:06;;;;;;;13.43;11.50;;;19.10;99.90;;;;;;5039529;28;20205;-49
2021/09/16 12:08:39;;;;;;;12.45;11.15;;;19.20;99.90;;;;;;5036215;28;20210;-50
2021/09/16 12:11:14;;;;;;;14.75;12.43;;;19.30;99.90;;;;;;5032110;28;20182;-49
2021/09/16 12:13:49;;;;;;;15.40;11.50;;;19.40;99.90;;;;;;5023768;28;20181;-49
2021/09/16 12:16:32;;;;;;;14.77;12.77;;;19.50;99.90;;;;;;5035717;28;20783;-49
2021/09/16 12:19:07;;;;;;;14.10;12.70;;;19.40;99.90;;;;;;5045155;28;20212;-49
2021/09/16 12:21:36;;;;;;;13.88;12.35;;;19.20;99.90;;;;;;5026893;28;20177;-49
2021/09/16 12:24:13;;;;;;;15.13;13.52;;;19.50;99.90;;;;;;5022406;28;20652;-49
2021/09/16 12:26:43;;;;;;;14.48;12.98;;;19.20;99.90;;;;;;5024696;28;20519;-49
2021/09/16 12:29:35;;;;;;;15.85;14.27;;;19.10;99.90;;;;;;5023576;28;20658;-49
2021/09/16 12:32:08;;;;;;;17.13;14.88;;;19.10;99.90;;;;;;5027672;28;20198;-49
2021/09/16 12:34:37;;;;;;;16.20;14.55;;;19.10;99.90;;;;;;5031248;28;20197;-48
2021/09/16 12:37:15;;;;;;;20.85;16.48;;;19.10;99.90;;;;;;5029977;28;20214;-49
2021/09/16 12:39:49;;;;;;;19.70;14.70;;;19.20;99.90;;;;;;5033284;28;20186;-49
2021/09/16 12:42:33;;;;;;;18.45;15.23;;;19.00;99.90;;;;;;5032415;28;20206;-49
2021/09/16 12:45:13;;;;;;;18.05;16.15;;;18.90;99.90;;;;;;5027307;28;20285;-49
2021/09/16 12:47:48;;;;;;;19.20;16.25;;;18.80;99.90;;;;;;5034344;28;20271;-50